Time,TemperatureF,DewpointF,PressureIn,WindDirection,WindDirectionDegrees,WindSpeedMPH,WindSpeedGustMPH,Humidity,HourlyPrecipIn,Conditions,Clouds,dailyrainin,SoftwareType,DateUTC
2014-08-23 00:13:00,78.9,76.0,29.99,ESE,113,0.0,1.0,90,0.00,,,0.00,weatherlink.com 1.10,2014-08-23 05:13:00,
2014-08-23 00:28:00,78.6,76.0,30.00,East,96,0.0,1.0,90,0.00,,,0.00,weatherlink.com 1.10,2014-08-23 05:28:00,
2014-08-23 00:43:00,78.3,76.0,29.99,South,190,0.0,3.0,91,0.00,,,0.00,weatherlink.com 1.10,2014-08-23 05:43:00,
2014-08-23 00:58:00,78.0,75.0,29.98,SSE,155,0.0,1.0,91,0.00,,,0.00,weatherlink.com 1.10,2014-08-23 05:58:00,
2014-08-23 01:13:00,77.5,75.0,29.99,SSE,158,0.0,0.0,92,0.00,,,0.00,weatherlink.com 1.10,2014-08-23 06:13:00,
2014-08-23 01:28:00,77.0,75.0,29.99,South,186,0.0,0.0,93,0.00,,,0.00,weatherlink.com 1.10,2014-08-23 06:28:00,
2014-08-23 01:43:00,76.8,75.0,29.99,SSE,166,0.0,0.0,94,0.00,,,0.00,weatherlink.com 1.10,2014-08-23 06:43:00,
2014-08-23 01:59:00,76.5,75.0,29.99,SSE,166,0.0,0.0,94,0.00,,,0.00,weatherlink.com 1.10,2014-08-23 06:59:00,
2014-08-23 02:14:00,76.2,74.0,29.98,SSE,166,0.0,0.0,94,0.00,,,0.00,weatherlink.com 1.10,2014-08-23 07:14:00,
2014-08-23 02:28:00,76.3,75.0,29.98,SSE,155,0.0,0.0,95,0.00,,,0.00,weatherlink.com 1.10,2014-08-23 07:28:00,
2014-08-23 02:44:00,76.2,75.0,29.98,SSE,155,0.0,0.0,95,0.00,,,0.00,weatherlink.com 1.10,2014-08-23 07:44:00,
2014-08-23 02:58:00,75.9,74.0,29.98,SSE,154,0.0,0.0,95,0.00,,,0.00,weatherlink.com 1.10,2014-08-23 07:58:00,
2014-08-23 03:14:00,75.5,74.0,29.98,SSE,154,0.0,0.0,95,0.00,,,0.00,weatherlink.com 1.10,2014-08-23 08:14:00,
2014-08-23 03:29:00,75.4,74.0,29.98,SSE,153,0.0,0.0,96,0.00,,,0.00,weatherlink.com 1.10,2014-08-23 08:29:00,
2014-08-23 03:44:00,75.2,74.0,29.98,SSE,153,0.0,0.0,96,0.00,,,0.00,weatherlink.com 1.10,2014-08-23 08:44:00,
2014-08-23 03:59:00,75.3,74.0,29.98,SSE,154,0.0,0.0,97,0.00,,,0.00,weatherlink.com 1.10,2014-08-23 08:59:00,
2014-08-23 04:14:00,74.9,74.0,29.98,SSE,153,0.0,0.0,97,0.00,,,0.00,weatherlink.com 1.10,2014-08-23 09:14:00,
2014-08-23 04:29:00,74.6,74.0,29.97,SSE,153,0.0,0.0,97,0.00,,,0.00,weatherlink.com 1.10,2014-08-23 09:29:00,
2014-08-23 04:44:00,74.4,74.0,29.97,SSE,154,0.0,0.0,97,0.00,,,0.00,weatherlink.com 1.10,2014-08-23 09:44:00,
2014-08-23 04:59:00,74.6,74.0,29.98,SSE,153,0.0,0.0,97,0.00,,,0.00,weatherlink.com 1.10,2014-08-23 09:59:00,
2014-08-23 05:14:00,74.4,74.0,29.98,SSE,154,0.0,0.0,97,0.00,,,0.00,weatherlink.com 1.10,2014-08-23 10:14:00,
2014-08-23 05:29:00,74.6,74.0,29.98,SSE,154,0.0,0.0,98,0.00,,,0.00,weatherlink.com 1.10,2014-08-23 10:29:00,
2014-08-23 05:44:00,74.6,74.0,29.98,SSE,153,0.0,0.0,98,0.00,,,0.00,weatherlink.com 1.10,2014-08-23 10:44:00,
2014-08-23 05:59:00,74.8,74.0,29.98,SSE,153,0.0,0.0,98,0.00,,,0.00,weatherlink.com 1.10,2014-08-23 10:59:00,
2014-08-23 06:14:00,74.2,74.0,29.99,SSE,154,0.0,0.0,98,0.00,,,0.00,weatherlink.com 1.10,2014-08-23 11:14:00,
2014-08-23 06:29:00,74.1,74.0,29.99,SSE,153,0.0,0.0,98,0.00,,,0.00,weatherlink.com 1.10,2014-08-23 11:29:00,
2014-08-23 06:44:00,73.6,73.0,30.00,SSE,154,0.0,0.0,98,0.00,,,0.00,weatherlink.com 1.10,2014-08-23 11:44:00,
2014-08-23 06:59:00,73.7,73.0,30.00,SSE,154,0.0,0.0,99,0.00,,,0.00,weatherlink.com 1.10,2014-08-23 11:59:00,
2014-08-23 07:14:00,73.9,74.0,30.00,SSE,153,0.0,0.0,99,0.00,,,0.00,weatherlink.com 1.10,2014-08-23 12:14:00,
2014-08-23 07:29:00,74.9,74.0,30.00,SSE,153,0.0,0.0,98,0.00,,,0.00,weatherlink.com 1.10,2014-08-23 12:29:00,
2014-08-23 07:44:00,76.6,76.0,30.00,SSE,153,0.0,0.0,98,0.00,,,0.00,weatherlink.com 1.10,2014-08-23 12:44:00,
2014-08-23 07:59:00,78.5,78.0,30.00,SSE,153,0.0,0.0,97,0.00,,,0.00,weatherlink.com 1.10,2014-08-23 12:59:00,
2014-08-23 08:14:00,80.0,79.0,30.01,SSE,158,0.0,0.0,96,0.00,,,0.00,weatherlink.com 1.10,2014-08-23 13:14:00,
2014-08-23 08:29:00,81.2,79.0,30.01,SE,127,0.0,2.0,92,0.00,,,0.00,weatherlink.com 1.10,2014-08-23 13:29:00,
2014-08-23 08:44:00,82.3,79.0,30.01,SSW,212,0.0,2.0,90,0.00,,,0.00,weatherlink.com 1.10,2014-08-23 13:44:00,
2014-08-23 08:59:00,83.6,79.0,30.01,SE,142,0.0,4.0,86,0.00,,,0.00,weatherlink.com 1.10,2014-08-23 13:59:00,
2014-08-23 09:14:00,84.4,80.0,30.01,East,98,2.0,4.0,85,0.00,,,0.00,weatherlink.com 1.10,2014-08-23 14:14:00,
2014-08-23 09:30:00,84.7,79.0,30.01,ESE,103,0.0,6.0,84,0.00,,,0.00,weatherlink.com 1.10,2014-08-23 14:30:00,
2014-08-23 09:44:00,85.1,79.0,30.01,SE,131,3.0,6.0,82,0.00,,,0.00,weatherlink.com 1.10,2014-08-23 14:44:00,
2014-08-23 09:59:00,87.0,79.0,30.01,East,96,4.0,4.0,77,0.00,,,0.00,weatherlink.com 1.10,2014-08-23 14:59:00,
2014-08-23 10:14:00,88.1,78.0,30.01,East,98,3.0,5.0,73,0.00,,,0.00,weatherlink.com 1.10,2014-08-23 15:14:00,
2014-08-23 10:29:00,88.9,78.0,30.01,East,97,4.0,4.0,70,0.00,,,0.00,weatherlink.com 1.10,2014-08-23 15:29:00,
2014-08-23 10:44:00,90.4,78.0,30.01,ESE,119,4.0,5.0,68,0.00,,,0.00,weatherlink.com 1.10,2014-08-23 15:44:00,
2014-08-23 11:00:00,90.7,75.0,30.01,SE,124,1.0,5.0,61,0.00,,,0.00,weatherlink.com 1.10,2014-08-23 16:00:00,
2014-08-23 11:15:00,91.1,75.0,30.02,SW,218,0.0,6.0,60,0.00,,,0.00,weatherlink.com 1.10,2014-08-23 16:15:00,
2014-08-23 11:30:00,89.9,76.0,30.02,East,82,1.0,5.0,63,0.00,,,0.00,weatherlink.com 1.10,2014-08-23 16:30:00,
2014-08-23 11:45:00,89.8,77.0,30.01,East,89,0.0,5.0,67,0.00,,,0.00,weatherlink.com 1.10,2014-08-23 16:45:00,
2014-08-23 12:00:00,91.0,75.0,30.01,ESE,123,2.0,8.0,60,0.00,,,0.00,weatherlink.com 1.10,2014-08-23 17:00:00,
2014-08-23 12:15:00,91.7,76.0,30.00,ESE,115,1.0,6.0,60,0.00,,,0.00,weatherlink.com 1.10,2014-08-23 17:15:00,
2014-08-23 12:30:00,94.1,77.0,30.00,ESE,116,4.0,5.0,58,0.00,,,0.00,weatherlink.com 1.10,2014-08-23 17:30:00,